sensor_id;sensor_type;location;lat;lon;timestamp;temperature;humidity
26164;DHT22;13914;48.178;11.716;2023-04-09T00:01:03;4.30;76.40
26164;DHT22;13914;48.178;11.716;2023-04-09T00:03:29;4.30;76.30
26164;DHT22;13914;48.178;11.716;2023-04-09T00:05:55;4.30;76.40
26164;DHT22;13914;48.178;11.716;2023-04-09T00:08:21;4.30;76.30
26164;DHT22;13914;48.178;11.716;2023-04-09T00:10:48;4.30;76.60
26164;DHT22;13914;48.178;11.716;2023-04-09T00:13:15;4.30;76.30
26164;DHT22;13914;48.178;11.716;2023-04-09T00:15:41;4.30;76.40
26164;DHT22;13914;48.178;11.716;2023-04-09T00:18:06;4.20;76.50
26164;DHT22;13914;48.178;11.716;2023-04-09T00:20:32;4.30;76.70
26164;DHT22;13914;48.178;11.716;2023-04-09T00:22:57;4.20;76.30
26164;DHT22;13914;48.178;11.716;2023-04-09T00:25:23;4.20;76.50
26164;DHT22;13914;48.178;11.716;2023-04-09T00:27:49;4.30;76.20
26164;DHT22;13914;48.178;11.716;2023-04-09T00:30:15;4.20;76.40
26164;DHT22;13914;48.178;11.716;2023-04-09T00:32:41;4.20;76.30
26164;DHT22;13914;48.178;11.716;2023-04-09T00:35:07;4.20;76.40
26164;DHT22;13914;48.178;11.716;2023-04-09T00:37:33;4.20;76.40
26164;DHT22;13914;48.178;11.716;2023-04-09T00:39:59;4.20;76.30
26164;DHT22;13914;48.178;11.716;2023-04-09T00:42:25;4.20;76.40
26164;DHT22;13914;48.178;11.716;2023-04-09T00:44:51;4.20;76.10
26164;DHT22;13914;48.178;11.716;2023-04-09T00:47:17;4.20;76.20
26164;DHT22;13914;48.178;11.716;2023-04-09T00:49:43;4.10;76.30
26164;DHT22;13914;48.178;11.716;2023-04-09T00:52:09;4.20;76.70
26164;DHT22;13914;48.178;11.716;2023-04-09T00:54:35;4.20;76.50
26164;DHT22;13914;48.178;11.716;2023-04-09T00:57:01;4.20;76.20
26164;DHT22;13914;48.178;11.716;2023-04-09T00:59:27;4.20;76.40
26164;DHT22;13914;48.178;11.716;2023-04-09T01:01:53;4.20;76.20
26164;DHT22;13914;48.178;11.716;2023-04-09T01:04:19;4.20;76.10
26164;DHT22;13914;48.178;11.716;2023-04-09T01:06:50;4.10;76.00
26164;DHT22;13914;48.178;11.716;2023-04-09T01:09:18;4.10;76.70
26164;DHT22;13914;48.178;11.716;2023-04-09T01:11:53;4.10;75.90
26164;DHT22;13914;48.178;11.716;2023-04-09T01:14:26;4.10;76.20
26164;DHT22;13914;48.178;11.716;2023-04-09T01:16:57;4.10;76.10
26164;DHT22;13914;48.178;11.716;2023-04-09T01:28:43;4.10;76.10
26164;DHT22;13914;48.178;11.716;2023-04-09T01:31:10;4.10;76.10
26164;DHT22;13914;48.178;11.716;2023-04-09T01:33:38;4.10;76.00
26164;DHT22;13914;48.178;11.716;2023-04-09T01:36:05;4.10;76.00
26164;DHT22;13914;48.178;11.716;2023-04-09T01:38:31;4.10;75.90
26164;DHT22;13914;48.178;11.716;2023-04-09T01:40:58;4.10;75.90
26164;DHT22;13914;48.178;11.716;2023-04-09T01:43:26;4.10;75.70
26164;DHT22;13914;48.178;11.716;2023-04-09T01:45:52;4.10;75.80
26164;DHT22;13914;48.178;11.716;2023-04-09T01:48:18;4.10;75.80
26164;DHT22;13914;48.178;11.716;2023-04-09T01:50:45;4.10;75.70
26164;DHT22;13914;48.178;11.716;2023-04-09T01:53:11;4.10;75.80
26164;DHT22;13914;48.178;11.716;2023-04-09T01:55:36;4.10;76.10
26164;DHT22;13914;48.178;11.716;2023-04-09T01:58:02;4.10;75.90
26164;DHT22;13914;48.178;11.716;2023-04-09T02:00:30;4.10;75.90
26164;DHT22;13914;48.178;11.716;2023-04-09T02:08:46;4.10;75.90
26164;DHT22;13914;48.178;11.716;2023-04-09T02:11:12;4.00;75.80
26164;DHT22;13914;48.178;11.716;2023-04-09T02:13:39;4.10;76.00
26164;DHT22;13914;48.178;11.716;2023-04-09T02:16:06;4.00;76.00
26164;DHT22;13914;48.178;11.716;2023-04-09T02:18:32;4.00;76.00
26164;DHT22;13914;48.178;11.716;2023-04-09T02:20:58;4.00;75.80
26164;DHT22;13914;48.178;11.716;2023-04-09T02:23:24;4.00;75.80
26164;DHT22;13914;48.178;11.716;2023-04-09T02:25:51;4.00;75.60
26164;DHT22;13914;48.178;11.716;2023-04-09T02:28:17;4.00;75.80
26164;DHT22;13914;48.178;11.716;2023-04-09T02:30:43;4.00;76.10
26164;DHT22;13914;48.178;11.716;2023-04-09T02:33:09;4.00;76.40
26164;DHT22;13914;48.178;11.716;2023-04-09T02:35:35;4.00;75.70
26164;DHT22;13914;48.178;11.716;2023-04-09T02:38:00;4.00;75.90
26164;DHT22;13914;48.178;11.716;2023-04-09T02:40:26;4.00;75.90
26164;DHT22;13914;48.178;11.716;2023-04-09T02:42:52;4.00;75.70
26164;DHT22;13914;48.178;11.716;2023-04-09T02:45:18;4.00;75.80
26164;DHT22;13914;48.178;11.716;2023-04-09T02:47:44;4.00;75.80
26164;DHT22;13914;48.178;11.716;2023-04-09T02:50:09;4.00;75.80
26164;DHT22;13914;48.178;11.716;2023-04-09T02:52:35;4.00;75.80
26164;DHT22;13914;48.178;11.716;2023-04-09T02:55:01;4.00;75.60
26164;DHT22;13914;48.178;11.716;2023-04-09T02:57:26;4.00;75.90
26164;DHT22;13914;48.178;11.716;2023-04-09T02:59:52;4.00;76.70
26164;DHT22;13914;48.178;11.716;2023-04-09T03:02:18;4.00;75.80
26164;DHT22;13914;48.178;11.716;2023-04-09T03:04:44;4.00;75.80
26164;DHT22;13914;48.178;11.716;2023-04-09T03:07:10;4.00;76.30
26164;DHT22;13914;48.178;11.716;2023-04-09T03:09:36;4.00;77.60
26164;DHT22;13914;48.178;11.716;2023-04-09T03:12:01;4.00;76.90
26164;DHT22;13914;48.178;11.716;2023-04-09T03:14:27;4.00;76.50
26164;DHT22;13914;48.178;11.716;2023-04-09T03:16:53;4.00;76.20
26164;DHT22;13914;48.178;11.716;2023-04-09T03:19:18;4.00;76.40
26164;DHT22;13914;48.178;11.716;2023-04-09T03:21:44;4.00;76.10
26164;DHT22;13914;48.178;11.716;2023-04-09T03:24:11;4.00;76.10
26164;DHT22;13914;48.178;11.716;2023-04-09T03:26:36;4.00;76.00
26164;DHT22;13914;48.178;11.716;2023-04-09T03:29:03;4.00;76.00
26164;DHT22;13914;48.178;11.716;2023-04-09T03:31:29;4.00;76.00
26164;DHT22;13914;48.178;11.716;2023-04-09T03:33:55;4.00;76.00
26164;DHT22;13914;48.178;11.716;2023-04-09T03:36:21;4.00;76.00
26164;DHT22;13914;48.178;11.716;2023-04-09T03:38:47;3.90;75.90
26164;DHT22;13914;48.178;11.716;2023-04-09T03:41:13;3.90;75.90
26164;DHT22;13914;48.178;11.716;2023-04-09T03:43:39;3.90;76.10
26164;DHT22;13914;48.178;11.716;2023-04-09T03:46:14;3.90;75.90
26164;DHT22;13914;48.178;11.716;2023-04-09T03:48:40;3.90;75.90
26164;DHT22;13914;48.178;11.716;2023-04-09T03:51:13;3.90;75.90
26164;DHT22;13914;48.178;11.716;2023-04-09T03:53:39;3.80;76.10
26164;DHT22;13914;48.178;11.716;2023-04-09T03:56:06;3.90;76.20
26164;DHT22;13914;48.178;11.716;2023-04-09T03:58:32;3.80;76.30
26164;DHT22;13914;48.178;11.716;2023-04-09T04:00:58;3.80;76.40
26164;DHT22;13914;48.178;11.716;2023-04-09T04:03:24;3.80;76.50
26164;DHT22;13914;48.178;11.716;2023-04-09T04:05:50;3.80;76.10
26164;DHT22;13914;48.178;11.716;2023-04-09T04:08:16;3.70;76.10
26164;DHT22;13914;48.178;11.716;2023-04-09T04:10:41;3.70;76.00
26164;DHT22;13914;48.178;11.716;2023-04-09T04:13:09;3.70;76.00
26164;DHT22;13914;48.178;11.716;2023-04-09T04:15:41;3.70;76.00
26164;DHT22;13914;48.178;11.716;2023-04-09T04:18:07;3.70;75.90
26164;DHT22;13914;48.178;11.716;2023-04-09T04:20:34;3.70;76.00
26164;DHT22;13914;48.178;11.716;2023-04-09T04:23:00;3.70;76.00
26164;DHT22;13914;48.178;11.716;2023-04-09T04:25:26;3.60;75.90
26164;DHT22;13914;48.178;11.716;2023-04-09T04:27:52;3.70;76.00
26164;DHT22;13914;48.178;11.716;2023-04-09T04:30:19;3.60;75.90
26164;DHT22;13914;48.178;11.716;2023-04-09T04:32:48;3.70;76.00
26164;DHT22;13914;48.178;11.716;2023-04-09T04:35:14;3.60;75.90
26164;DHT22;13914;48.178;11.716;2023-04-09T04:37:40;3.60;75.90
26164;DHT22;13914;48.178;11.716;2023-04-09T04:40:06;3.60;75.70
26164;DHT22;13914;48.178;11.716;2023-04-09T04:42:33;3.60;75.70
26164;DHT22;13914;48.178;11.716;2023-04-09T04:44:59;3.60;75.70
26164;DHT22;13914;48.178;11.716;2023-04-09T04:47:25;3.50;75.60
26164;DHT22;13914;48.178;11.716;2023-04-09T04:49:50;3.50;75.90
26164;DHT22;13914;48.178;11.716;2023-04-09T04:52:16;3.50;75.80
26164;DHT22;13914;48.178;11.716;2023-04-09T04:54:42;3.50;76.10
26164;DHT22;13914;48.178;11.716;2023-04-09T04:57:07;3.50;75.80
26164;DHT22;13914;48.178;11.716;2023-04-09T04:59:36;3.50;75.80
26164;DHT22;13914;48.178;11.716;2023-04-09T05:02:05;3.50;75.90
26164;DHT22;13914;48.178;11.716;2023-04-09T05:04:32;3.50;75.90
26164;DHT22;13914;48.178;11.716;2023-04-09T05:06:57;3.50;75.90
26164;DHT22;13914;48.178;11.716;2023-04-09T05:09:23;3.50;76.00
26164;DHT22;13914;48.178;11.716;2023-04-09T05:11:49;3.50;75.80
26164;DHT22;13914;48.178;11.716;2023-04-09T05:14:14;3.50;76.60
26164;DHT22;13914;48.178;11.716;2023-04-09T05:16:40;3.50;75.60
26164;DHT22;13914;48.178;11.716;2023-04-09T05:19:06;3.50;75.50
26164;DHT22;13914;48.178;11.716;2023-04-09T05:21:32;3.50;75.60
26164;DHT22;13914;48.178;11.716;2023-04-09T05:23:57;3.50;75.60
26164;DHT22;13914;48.178;11.716;2023-04-09T05:26:23;3.50;75.60
26164;DHT22;13914;48.178;11.716;2023-04-09T05:28:49;3.50;75.60
26164;DHT22;13914;48.178;11.716;2023-04-09T05:31:14;3.50;75.40
26164;DHT22;13914;48.178;11.716;2023-04-09T05:33:40;3.50;75.40
26164;DHT22;13914;48.178;11.716;2023-04-09T05:36:06;3.60;75.50
26164;DHT22;13914;48.178;11.716;2023-04-09T05:38:32;3.50;75.30
26164;DHT22;13914;48.178;11.716;2023-04-09T05:40:58;3.60;75.50
26164;DHT22;13914;48.178;11.716;2023-04-09T05:43:24;3.60;75.50
26164;DHT22;13914;48.178;11.716;2023-04-09T05:45:50;3.60;75.50
26164;DHT22;13914;48.178;11.716;2023-04-09T05:48:15;3.60;75.40
26164;DHT22;13914;48.178;11.716;2023-04-09T05:50:49;3.60;75.70
26164;DHT22;13914;48.178;11.716;2023-04-09T05:53:17;3.60;75.90
26164;DHT22;13914;48.178;11.716;2023-04-09T05:55:43;3.60;75.80
26164;DHT22;13914;48.178;11.716;2023-04-09T05:58:10;3.70;75.90
26164;DHT22;13914;48.178;11.716;2023-04-09T06:00:36;3.70;75.70
26164;DHT22;13914;48.178;11.716;2023-04-09T06:03:01;3.70;75.60
26164;DHT22;13914;48.178;11.716;2023-04-09T06:05:27;3.70;75.50
26164;DHT22;13914;48.178;11.716;2023-04-09T06:07:53;3.70;75.50
26164;DHT22;13914;48.178;11.716;2023-04-09T06:10:19;3.80;75.80
26164;DHT22;13914;48.178;11.716;2023-04-09T06:12:44;3.80;75.70
26164;DHT22;13914;48.178;11.716;2023-04-09T06:15:10;3.80;75.50
26164;DHT22;13914;48.178;11.716;2023-04-09T06:17:36;3.80;75.60
26164;DHT22;13914;48.178;11.716;2023-04-09T06:20:01;3.80;75.50
26164;DHT22;13914;48.178;11.716;2023-04-09T06:22:27;3.80;75.50
26164;DHT22;13914;48.178;11.716;2023-04-09T06:24:53;3.80;75.50
26164;DHT22;13914;48.178;11.716;2023-04-09T06:27:19;3.80;75.60
26164;DHT22;13914;48.178;11.716;2023-04-09T06:29:46;3.90;75.90
26164;DHT22;13914;48.178;11.716;2023-04-09T06:32:12;3.90;75.90
26164;DHT22;13914;48.178;11.716;2023-04-09T06:34:37;3.90;75.70
26164;DHT22;13914;48.178;11.716;2023-04-09T06:37:03;3.90;75.70
26164;DHT22;13914;48.178;11.716;2023-04-09T06:39:29;4.00;76.10
26164;DHT22;13914;48.178;11.716;2023-04-09T06:41:55;4.00;76.70
26164;DHT22;13914;48.178;11.716;2023-04-09T06:44:20;4.00;76.30
26164;DHT22;13914;48.178;11.716;2023-04-09T06:46:46;4.10;76.50
26164;DHT22;13914;48.178;11.716;2023-04-09T06:49:12;4.10;76.70
26164;DHT22;13914;48.178;11.716;2023-04-09T06:51:37;4.20;77.30
26164;DHT22;13914;48.178;11.716;2023-04-09T06:54:03;4.20;77.40
26164;DHT22;13914;48.178;11.716;2023-04-09T06:56:29;4.30;77.60
26164;DHT22;13914;48.178;11.716;2023-04-09T06:58:54;4.40;77.50
26164;DHT22;13914;48.178;11.716;2023-04-09T07:01:20;4.40;77.30
26164;DHT22;13914;48.178;11.716;2023-04-09T07:03:46;4.50;78.60
26164;DHT22;13914;48.178;11.716;2023-04-09T07:06:12;4.60;77.70
26164;DHT22;13914;48.178;11.716;2023-04-09T07:08:37;4.70;77.80
26164;DHT22;13914;48.178;11.716;2023-04-09T07:11:03;4.80;78.90
26164;DHT22;13914;48.178;11.716;2023-04-09T07:13:29;4.90;78.40
26164;DHT22;13914;48.178;11.716;2023-04-09T07:15:55;5.00;78.10
26164;DHT22;13914;48.178;11.716;2023-04-09T07:18:21;5.10;79.20
26164;DHT22;13914;48.178;11.716;2023-04-09T07:20:46;5.10;78.10
26164;DHT22;13914;48.178;11.716;2023-04-09T07:23:12;5.20;77.70
26164;DHT22;13914;48.178;11.716;2023-04-09T07:25:38;5.30;77.80
26164;DHT22;13914;48.178;11.716;2023-04-09T07:28:03;5.40;78.00
26164;DHT22;13914;48.178;11.716;2023-04-09T07:30:29;5.50;77.80
26164;DHT22;13914;48.178;11.716;2023-04-09T07:32:56;5.60;78.30
26164;DHT22;13914;48.178;11.716;2023-04-09T07:35:21;5.70;78.00
26164;DHT22;13914;48.178;11.716;2023-04-09T07:37:47;5.80;78.60
26164;DHT22;13914;48.178;11.716;2023-04-09T07:40:13;5.80;78.90
26164;DHT22;13914;48.178;11.716;2023-04-09T07:42:38;6.00;79.20
26164;DHT22;13914;48.178;11.716;2023-04-09T07:45:05;6.10;79.20
26164;DHT22;13914;48.178;11.716;2023-04-09T07:47:31;6.20;79.00
26164;DHT22;13914;48.178;11.716;2023-04-09T07:49:57;6.20;78.90
26164;DHT22;13914;48.178;11.716;2023-04-09T07:52:23;6.40;79.30
26164;DHT22;13914;48.178;11.716;2023-04-09T07:54:48;6.50;79.10
26164;DHT22;13914;48.178;11.716;2023-04-09T07:57:14;6.70;78.90
26164;DHT22;13914;48.178;11.716;2023-04-09T07:59:40;6.80;79.00
26164;DHT22;13914;48.178;11.716;2023-04-09T08:02:06;6.90;79.00
26164;DHT22;13914;48.178;11.716;2023-04-09T08:04:32;7.10;79.00
26164;DHT22;13914;48.178;11.716;2023-04-09T08:06:57;7.20;78.90
26164;DHT22;13914;48.178;11.716;2023-04-09T08:09:24;7.30;78.80
26164;DHT22;13914;48.178;11.716;2023-04-09T08:11:49;7.50;78.80
26164;DHT22;13914;48.178;11.716;2023-04-09T08:14:16;7.60;78.40
26164;DHT22;13914;48.178;11.716;2023-04-09T08:16:43;7.70;78.70
26164;DHT22;13914;48.178;11.716;2023-04-09T08:19:12;7.90;78.40
26164;DHT22;13914;48.178;11.716;2023-04-09T08:21:39;8.00;78.40
26164;DHT22;13914;48.178;11.716;2023-04-09T08:24:09;8.20;78.60
26164;DHT22;13914;48.178;11.716;2023-04-09T08:26:36;8.30;78.50
26164;DHT22;13914;48.178;11.716;2023-04-09T08:29:02;8.40;78.40
26164;DHT22;13914;48.178;11.716;2023-04-09T08:31:28;8.60;78.50
26164;DHT22;13914;48.178;11.716;2023-04-09T08:33:53;8.70;78.60
26164;DHT22;13914;48.178;11.716;2023-04-09T08:36:19;8.80;78.30
26164;DHT22;13914;48.178;11.716;2023-04-09T08:38:46;8.90;78.00
26164;DHT22;13914;48.178;11.716;2023-04-09T08:43:44;9.20;77.70
26164;DHT22;13914;48.178;11.716;2023-04-09T08:46:11;9.30;76.90
26164;DHT22;13914;48.178;11.716;2023-04-09T08:48:38;9.40;75.70
26164;DHT22;13914;48.178;11.716;2023-04-09T08:51:06;9.40;76.20
26164;DHT22;13914;48.178;11.716;2023-04-09T08:53:32;9.50;76.30
26164;DHT22;13914;48.178;11.716;2023-04-09T08:55:59;9.60;75.70
26164;DHT22;13914;48.178;11.716;2023-04-09T08:58:25;9.70;76.10
26164;DHT22;13914;48.178;11.716;2023-04-09T09:00:50;9.80;75.80
26164;DHT22;13914;48.178;11.716;2023-04-09T09:03:16;9.80;75.90
26164;DHT22;13914;48.178;11.716;2023-04-09T09:05:43;10.00;75.50
26164;DHT22;13914;48.178;11.716;2023-04-09T09:08:11;10.00;74.60
26164;DHT22;13914;48.178;11.716;2023-04-09T09:10:39;10.00;73.10
26164;DHT22;13914;48.178;11.716;2023-04-09T09:15:46;10.10;73.30
26164;DHT22;13914;48.178;11.716;2023-04-09T09:18:15;10.20;74.70
26164;DHT22;13914;48.178;11.716;2023-04-09T09:20:41;10.30;74.30
26164;DHT22;13914;48.178;11.716;2023-04-09T09:23:07;10.30;74.10
26164;DHT22;13914;48.178;11.716;2023-04-09T09:25:37;10.40;74.60
26164;DHT22;13914;48.178;11.716;2023-04-09T09:28:07;10.50;74.30
26164;DHT22;13914;48.178;11.716;2023-04-09T09:30:35;10.50;74.40
26164;DHT22;13914;48.178;11.716;2023-04-09T09:33:06;10.60;74.00
26164;DHT22;13914;48.178;11.716;2023-04-09T09:38:13;10.80;73.80
26164;DHT22;13914;48.178;11.716;2023-04-09T09:40:40;10.80;73.80
26164;DHT22;13914;48.178;11.716;2023-04-09T09:43:06;10.80;73.60
26164;DHT22;13914;48.178;11.716;2023-04-09T09:45:32;10.90;73.50
26164;DHT22;13914;48.178;11.716;2023-04-09T09:47:57;11.00;72.80
26164;DHT22;13914;48.178;11.716;2023-04-09T09:50:23;11.10;72.70
26164;DHT22;13914;48.178;11.716;2023-04-09T09:52:53;11.10;73.00
26164;DHT22;13914;48.178;11.716;2023-04-09T09:55:25;11.00;71.30
26164;DHT22;13914;48.178;11.716;2023-04-09T09:57:52;11.10;71.90
26164;DHT22;13914;48.178;11.716;2023-04-09T10:00:19;11.10;72.00
26164;DHT22;13914;48.178;11.716;2023-04-09T10:02:54;11.20;73.10
26164;DHT22;13914;48.178;11.716;2023-04-09T10:05:22;11.20;72.00
26164;DHT22;13914;48.178;11.716;2023-04-09T10:07:54;11.20;72.40
26164;DHT22;13914;48.178;11.716;2023-04-09T10:10:21;11.30;72.20
26164;DHT22;13914;48.178;11.716;2023-04-09T10:12:48;11.30;70.20
26164;DHT22;13914;48.178;11.716;2023-04-09T10:15:14;11.20;69.90
26164;DHT22;13914;48.178;11.716;2023-04-09T10:17:40;11.30;71.10
26164;DHT22;13914;48.178;11.716;2023-04-09T10:20:10;11.30;71.10
26164;DHT22;13914;48.178;11.716;2023-04-09T10:22:39;11.30;70.80
26164;DHT22;13914;48.178;11.716;2023-04-09T10:25:06;11.30;70.50
26164;DHT22;13914;48.178;11.716;2023-04-09T10:27:32;11.40;71.40
26164;DHT22;13914;48.178;11.716;2023-04-09T10:29:58;11.50;70.50
26164;DHT22;13914;48.178;11.716;2023-04-09T10:32:24;11.40;69.10
26164;DHT22;13914;48.178;11.716;2023-04-09T10:34:55;11.40;70.00
26164;DHT22;13914;48.178;11.716;2023-04-09T10:37:22;11.40;69.90
26164;DHT22;13914;48.178;11.716;2023-04-09T10:39:49;11.40;69.80
26164;DHT22;13914;48.178;11.716;2023-04-09T10:42:17;11.40;69.90
26164;DHT22;13914;48.178;11.716;2023-04-09T10:44:44;11.30;69.80
26164;DHT22;13914;48.178;11.716;2023-04-09T10:47:10;11.40;69.50
26164;DHT22;13914;48.178;11.716;2023-04-09T10:49:40;11.40;69.40
26164;DHT22;13914;48.178;11.716;2023-04-09T10:52:07;11.40;69.90
26164;DHT22;13914;48.178;11.716;2023-04-09T10:54:36;11.40;68.60
26164;DHT22;13914;48.178;11.716;2023-04-09T10:59:38;11.50;69.20
26164;DHT22;13914;48.178;11.716;2023-04-09T11:02:07;11.50;70.70
26164;DHT22;13914;48.178;11.716;2023-04-09T11:05:21;11.70;70.30
26164;DHT22;13914;48.178;11.716;2023-04-09T11:07:26;11.70;68.60
26164;DHT22;13914;48.178;11.716;2023-04-09T11:09:52;11.60;69.40
26164;DHT22;13914;48.178;11.716;2023-04-09T11:12:17;11.50;69.00
26164;DHT22;13914;48.178;11.716;2023-04-09T11:14:43;11.50;69.40
26164;DHT22;13914;48.178;11.716;2023-04-09T11:17:09;11.60;69.30
26164;DHT22;13914;48.178;11.716;2023-04-09T11:19:35;11.70;69.90
26164;DHT22;13914;48.178;11.716;2023-04-09T11:22:03;11.70;70.30
26164;DHT22;13914;48.178;11.716;2023-04-09T11:24:43;11.60;68.20
26164;DHT22;13914;48.178;11.716;2023-04-09T11:27:09;11.60;68.10
26164;DHT22;13914;48.178;11.716;2023-04-09T11:29:35;11.60;68.50
26164;DHT22;13914;48.178;11.716;2023-04-09T11:32:01;11.60;68.30
26164;DHT22;13914;48.178;11.716;2023-04-09T11:34:27;11.60;69.40
26164;DHT22;13914;48.178;11.716;2023-04-09T11:36:53;11.70;69.10
26164;DHT22;13914;48.178;11.716;2023-04-09T11:39:19;11.60;68.40
26164;DHT22;13914;48.178;11.716;2023-04-09T11:41:44;11.60;68.60
26164;DHT22;13914;48.178;11.716;2023-04-09T11:44:11;11.70;70.20
26164;DHT22;13914;48.178;11.716;2023-04-09T11:46:37;11.80;71.60
26164;DHT22;13914;48.178;11.716;2023-04-09T11:49:03;11.80;70.40
26164;DHT22;13914;48.178;11.716;2023-04-09T11:51:29;11.80;68.10
26164;DHT22;13914;48.178;11.716;2023-04-09T11:54:00;11.80;69.00
26164;DHT22;13914;48.178;11.716;2023-04-09T11:56:28;11.80;69.40
26164;DHT22;13914;48.178;11.716;2023-04-09T11:58:54;11.70;69.60
26164;DHT22;13914;48.178;11.716;2023-04-09T12:01:20;11.80;69.70
26164;DHT22;13914;48.178;11.716;2023-04-09T12:03:51;11.80;67.90
26164;DHT22;13914;48.178;11.716;2023-04-09T12:06:20;11.80;67.50
26164;DHT22;13914;48.178;11.716;2023-04-09T12:08:53;11.70;67.90
26164;DHT22;13914;48.178;11.716;2023-04-09T12:11:20;11.70;67.20
26164;DHT22;13914;48.178;11.716;2023-04-09T12:14:01;11.60;67.00
26164;DHT22;13914;48.178;11.716;2023-04-09T12:16:31;11.70;67.70
26164;DHT22;13914;48.178;11.716;2023-04-09T12:19:05;11.60;67.70
26164;DHT22;13914;48.178;11.716;2023-04-09T12:24:29;11.70;67.20
26164;DHT22;13914;48.178;11.716;2023-04-09T12:26:55;11.70;67.00
26164;DHT22;13914;48.178;11.716;2023-04-09T12:29:21;11.70;67.90
26164;DHT22;13914;48.178;11.716;2023-04-09T12:31:47;11.70;67.90
26164;DHT22;13914;48.178;11.716;2023-04-09T12:34:13;11.80;69.20
26164;DHT22;13914;48.178;11.716;2023-04-09T12:36:39;11.90;69.90
26164;DHT22;13914;48.178;11.716;2023-04-09T12:39:06;11.90;68.30
26164;DHT22;13914;48.178;11.716;2023-04-09T12:41:33;11.90;67.60
26164;DHT22;13914;48.178;11.716;2023-04-09T12:43:58;11.90;68.10
26164;DHT22;13914;48.178;11.716;2023-04-09T12:46:24;11.80;67.30
26164;DHT22;13914;48.178;11.716;2023-04-09T12:48:51;11.80;68.10
26164;DHT22;13914;48.178;11.716;2023-04-09T12:51:17;11.90;69.90
26164;DHT22;13914;48.178;11.716;2023-04-09T12:53:42;12.00;70.40
26164;DHT22;13914;48.178;11.716;2023-04-09T12:56:08;12.10;70.30
26164;DHT22;13914;48.178;11.716;2023-04-09T12:58:34;12.10;69.00
26164;DHT22;13914;48.178;11.716;2023-04-09T13:01:00;12.20;70.30
26164;DHT22;13914;48.178;11.716;2023-04-09T13:03:28;12.20;68.70
26164;DHT22;13914;48.178;11.716;2023-04-09T13:05:54;12.20;68.60
26164;DHT22;13914;48.178;11.716;2023-04-09T13:08:20;12.20;68.20
26164;DHT22;13914;48.178;11.716;2023-04-09T13:10:45;12.20;67.60
26164;DHT22;13914;48.178;11.716;2023-04-09T13:13:11;12.10;67.60
26164;DHT22;13914;48.178;11.716;2023-04-09T13:15:40;12.00;68.30
26164;DHT22;13914;48.178;11.716;2023-04-09T13:18:10;12.00;67.90
26164;DHT22;13914;48.178;11.716;2023-04-09T13:20:37;12.10;69.60
26164;DHT22;13914;48.178;11.716;2023-04-09T13:23:03;12.10;69.40
26164;DHT22;13914;48.178;11.716;2023-04-09T13:25:29;12.20;70.30
26164;DHT22;13914;48.178;11.716;2023-04-09T13:27:55;12.20;69.60
26164;DHT22;13914;48.178;11.716;2023-04-09T13:30:21;12.30;70.60
26164;DHT22;13914;48.178;11.716;2023-04-09T13:32:47;12.40;70.70
26164;DHT22;13914;48.178;11.716;2023-04-09T13:35:13;12.40;70.90
26164;DHT22;13914;48.178;11.716;2023-04-09T13:37:38;12.40;69.70
26164;DHT22;13914;48.178;11.716;2023-04-09T13:40:05;12.30;69.90
26164;DHT22;13914;48.178;11.716;2023-04-09T13:42:33;12.30;69.90
26164;DHT22;13914;48.178;11.716;2023-04-09T13:44:59;12.40;70.80
26164;DHT22;13914;48.178;11.716;2023-04-09T13:47:24;12.40;70.30
26164;DHT22;13914;48.178;11.716;2023-04-09T13:49:50;12.40;70.30
26164;DHT22;13914;48.178;11.716;2023-04-09T13:52:17;12.40;69.00
26164;DHT22;13914;48.178;11.716;2023-04-09T13:54:43;12.50;69.80
26164;DHT22;13914;48.178;11.716;2023-04-09T13:57:08;12.60;70.00
26164;DHT22;13914;48.178;11.716;2023-04-09T13:59:34;12.60;70.00
26164;DHT22;13914;48.178;11.716;2023-04-09T14:02:02;12.70;69.80
26164;DHT22;13914;48.178;11.716;2023-04-09T14:04:29;12.80;70.00
26164;DHT22;13914;48.178;11.716;2023-04-09T14:06:55;12.90;70.20
26164;DHT22;13914;48.178;11.716;2023-04-09T14:09:22;12.90;70.80
26164;DHT22;13914;48.178;11.716;2023-04-09T14:11:47;13.00;71.10
26164;DHT22;13914;48.178;11.716;2023-04-09T14:14:14;13.10;70.70
26164;DHT22;13914;48.178;11.716;2023-04-09T14:16:39;13.10;70.30
26164;DHT22;13914;48.178;11.716;2023-04-09T14:19:05;13.10;69.70
26164;DHT22;13914;48.178;11.716;2023-04-09T14:21:32;13.10;67.60
26164;DHT22;13914;48.178;11.716;2023-04-09T14:23:57;13.00;68.40
26164;DHT22;13914;48.178;11.716;2023-04-09T14:26:23;12.90;67.60
26164;DHT22;13914;48.178;11.716;2023-04-09T14:28:49;13.00;71.00
26164;DHT22;13914;48.178;11.716;2023-04-09T14:31:15;13.10;70.50
26164;DHT22;13914;48.178;11.716;2023-04-09T14:33:44;13.10;70.70
26164;DHT22;13914;48.178;11.716;2023-04-09T14:36:10;13.20;71.00
26164;DHT22;13914;48.178;11.716;2023-04-09T14:38:36;13.20;70.20
26164;DHT22;13914;48.178;11.716;2023-04-09T14:41:01;13.30;69.90
26164;DHT22;13914;48.178;11.716;2023-04-09T14:43:27;13.30;70.30
26164;DHT22;13914;48.178;11.716;2023-04-09T14:45:53;13.30;69.60
26164;DHT22;13914;48.178;11.716;2023-04-09T14:48:18;13.30;70.00
26164;DHT22;13914;48.178;11.716;2023-04-09T14:50:44;13.40;70.10
26164;DHT22;13914;48.178;11.716;2023-04-09T14:53:10;13.40;70.30
26164;DHT22;13914;48.178;11.716;2023-04-09T14:55:37;13.40;70.30
26164;DHT22;13914;48.178;11.716;2023-04-09T14:58:03;13.50;68.80
26164;DHT22;13914;48.178;11.716;2023-04-09T15:00:31;13.40;65.80
26164;DHT22;13914;48.178;11.716;2023-04-09T15:02:58;13.30;69.20
26164;DHT22;13914;48.178;11.716;2023-04-09T15:05:24;13.30;68.20
26164;DHT22;13914;48.178;11.716;2023-04-09T15:07:50;13.40;68.30
26164;DHT22;13914;48.178;11.716;2023-04-09T15:10:15;13.30;68.80
26164;DHT22;13914;48.178;11.716;2023-04-09T15:12:41;13.40;69.50
26164;DHT22;13914;48.178;11.716;2023-04-09T15:15:07;13.40;69.20
26164;DHT22;13914;48.178;11.716;2023-04-09T15:17:33;13.40;68.00
26164;DHT22;13914;48.178;11.716;2023-04-09T15:19:59;13.40;69.50
26164;DHT22;13914;48.178;11.716;2023-04-09T15:22:24;13.40;68.70
26164;DHT22;13914;48.178;11.716;2023-04-09T15:24:50;13.40;66.20
26164;DHT22;13914;48.178;11.716;2023-04-09T15:27:16;13.30;67.60
26164;DHT22;13914;48.178;11.716;2023-04-09T15:29:42;13.40;68.80
26164;DHT22;13914;48.178;11.716;2023-04-09T15:32:08;13.40;64.50
26164;DHT22;13914;48.178;11.716;2023-04-09T15:34:33;13.40;55.80
26164;DHT22;13914;48.178;11.716;2023-04-09T15:36:59;13.40;55.60
26164;DHT22;13914;48.178;11.716;2023-04-09T15:39:25;13.40;55.20
26164;DHT22;13914;48.178;11.716;2023-04-09T15:41:53;13.40;55.10
26164;DHT22;13914;48.178;11.716;2023-04-09T15:44:20;13.30;51.30
26164;DHT22;13914;48.178;11.716;2023-04-09T15:46:46;13.10;52.40
26164;DHT22;13914;48.178;11.716;2023-04-09T15:49:12;13.00;51.40